Time;durP1;ratioP1;P1;durP2;ratioP2;P2;SDS_P1;SDS_P2;PMS_P1;PMS_P2;Temp;Humidity;BMP_temperature;BMP_pressure;BME280_temperature;BME280_humidity;BME280_pressure;Samples;Min_cycle;Max_cycle;Signal;HPM_P1;HPM_P2
2022/06/23 00:01:20;;;;;;;2.42;1.92;;;16.80;75.10;;;;;;629509;227;26819;-64
2022/06/23 00:03:49;;;;;;;2.05;1.90;;;16.80;74.50;;;;;;632342;227;26595;-64
2022/06/23 00:06:35;;;;;;;1.87;1.70;;;16.70;74.60;;;;;;632762;227;26782;-65
2022/06/23 00:09:02;;;;;;;2.60;1.85;;;16.70;75.80;;;;;;629984;227;26828;-66
2022/06/23 00:11:29;;;;;;;1.92;1.60;;;16.70;75.20;;;;;;620889;230;26537;-66
2022/06/23 00:14:03;;;;;;;2.50;1.77;;;16.60;74.60;;;;;;630431;227;26545;-66
2022/06/23 00:16:30;;;;;;;4.32;1.73;;;16.60;75.80;;;;;;631238;227;26776;-66
2022/06/23 00:18:57;;;;;;;7.22;2.20;;;16.60;75.20;;;;;;632270;227;26529;-65
2022/06/23 00:21:25;;;;;;;3.60;2.20;;;16.60;75.90;;;;;;628703;226;26795;-66
2022/06/23 00:23:52;;;;;;;2.00;1.90;;;16.50;76.40;;;;;;626088;227;27203;-66
2022/06/23 00:26:19;;;;;;;3.92;1.92;;;16.50;75.70;;;;;;632049;227;26541;-66
2022/06/23 00:28:47;;;;;;;1.80;1.70;;;16.50;75.90;;;;;;632033;227;26792;-66
2022/06/23 00:31:34;;;;;;;1.90;1.80;;;16.50;77.20;;;;;;625964;227;26546;-66
2022/06/23 00:34:02;;;;;;;2.37;2.20;;;16.50;76.50;;;;;;619473;227;26574;-66
2022/06/23 00:36:35;;;;;;;2.10;1.90;;;16.40;76.30;;;;;;623012;227;26906;-66
2022/06/23 00:39:03;;;;;;;2.83;2.10;;;16.40;76.50;;;;;;630981;227;26569;-66
2022/06/23 00:41:30;;;;;;;2.70;2.03;;;16.40;77.20;;;;;;628670;227;26841;-66
2022/06/23 00:43:57;;;;;;;3.20;2.05;;;16.40;77.30;;;;;;627536;227;26532;-66
2022/06/23 00:46:28;;;;;;;2.90;2.20;;;16.40;77.50;;;;;;631454;227;26594;-66
2022/06/23 00:48:55;;;;;;;2.45;1.92;;;16.30;77.10;;;;;;622912;227;26867;-66
2022/06/23 00:51:25;;;;;;;2.00;1.90;;;16.30;77.60;;;;;;625018;227;26528;-66
2022/06/23 00:53:55;;;;;;;2.80;1.95;;;16.30;77.40;;;;;;625434;227;26826;-66
2022/06/23 00:56:30;;;;;;;2.12;1.98;;;16.30;77.20;;;;;;622867;227;26633;-66
2022/06/23 00:58:58;;;;;;;3.42;2.00;;;16.30;77.10;;;;;;627728;227;26805;-66
2022/06/23 01:01:47;;;;;;;3.12;2.10;;;16.40;78.20;;;;;;629328;227;26554;-66
2022/06/23 01:04:24;;;;;;;2.20;1.92;;;16.30;78.10;;;;;;625901;227;26638;-66
2022/06/23 01:07:01;;;;;;;2.10;1.87;;;16.30;77.60;;;;;;625728;227;26561;-66
2022/06/23 01:09:36;;;;;;;2.72;2.00;;;16.30;77.70;;;;;;630746;225;27057;-66
2022/06/23 01:12:06;;;;;;;2.00;1.85;;;16.20;77.60;;;;;;625416;227;26540;-66
2022/06/23 01:14:39;;;;;;;1.70;1.60;;;16.20;77.60;;;;;;630921;227;26589;-66
2022/06/23 01:17:08;;;;;;;2.20;2.00;;;16.20;77.90;;;;;;626297;227;27054;-66
2022/06/23 01:20:09;;;;;;;3.20;2.00;;;16.20;77.60;;;;;;623366;227;26569;-66
2022/06/23 01:22:43;;;;;;;1.70;1.60;;;16.20;77.60;;;;;;624489;227;26599;-66
2022/06/23 01:25:33;;;;;;;2.70;1.92;;;16.20;77.20;;;;;;623140;230;26540;-66
2022/06/23 01:28:06;;;;;;;2.10;1.90;;;16.20;77.90;;;;;;622984;230;26560;-66
2022/06/23 01:30:59;;;;;;;2.53;2.15;;;16.10;77.60;;;;;;617479;230;26646;-66
2022/06/23 01:33:33;;;;;;;4.43;2.20;;;16.10;77.40;;;;;;628358;225;26613;-66
2022/06/23 01:36:02;;;;;;;2.10;2.00;;;16.10;77.10;;;;;;620540;230;26567;-66
2022/06/23 01:39:00;;;;;;;2.22;2.03;;;16.10;77.10;;;;;;619180;229;26844;-66
2022/06/23 01:41:38;;;;;;;2.33;2.12;;;16.10;77.70;;;;;;601085;229;26667;-66
2022/06/23 01:44:07;;;;;;;2.10;2.00;;;16.00;77.30;;;;;;627953;229;26604;-66
2022/06/23 01:46:35;;;;;;;2.12;2.03;;;16.00;77.20;;;;;;627367;229;26793;-66
2022/06/23 01:49:05;;;;;;;2.15;1.77;;;16.00;77.50;;;;;;627771;229;26576;-66
2022/06/23 01:51:51;;;;;;;2.17;1.98;;;16.00;77.20;;;;;;626272;229;26791;-66
2022/06/23 01:54:28;;;;;;;2.12;2.00;;;16.00;77.20;;;;;;630057;226;26527;-65
2022/06/23 01:56:57;;;;;;;2.33;1.95;;;16.00;77.40;;;;;;617300;230;26806;-65
2022/06/23 01:59:52;;;;;;;2.15;2.00;;;15.90;78.00;;;;;;612980;232;26616;-65
2022/06/23 02:02:23;;;;;;;1.98;1.87;;;15.90;78.10;;;;;;623926;229;26569;-66
2022/06/23 02:04:58;;;;;;;1.92;1.83;;;15.90;78.70;;;;;;622835;230;26640;-66
2022/06/23 02:07:32;;;;;;;2.55;2.20;;;15.90;78.70;;;;;;618685;230;26618;-66
2022/06/23 02:10:00;;;;;;;2.05;1.90;;;15.90;79.00;;;;;;623363;227;26653;-66
2022/06/23 02:12:29;;;;;;;2.45;2.12;;;15.90;79.80;;;;;;619845;230;26629;-66
2022/06/23 02:14:59;;;;;;;2.20;2.00;;;15.80;79.50;;;;;;624145;230;26615;-66
2022/06/23 02:17:28;;;;;;;2.17;1.95;;;15.80;79.60;;;;;;619179;230;26630;-66
2022/06/23 02:19:55;;;;;;;2.10;2.00;;;15.80;80.10;;;;;;618396;229;26830;-66
2022/06/23 02:22:40;;;;;;;2.17;1.98;;;15.70;80.10;;;;;;625993;228;26553;-66
2022/06/23 02:25:11;;;;;;;2.10;1.90;;;15.70;80.90;;;;;;626047;229;26560;-66
2022/06/23 02:27:43;;;;;;;2.00;1.90;;;15.60;81.40;;;;;;625214;229;26801;-66
2022/06/23 02:30:12;;;;;;;2.47;2.28;;;15.60;81.60;;;;;;624941;230;26591;-66
2022/06/23 02:32:43;;;;;;;2.03;1.92;;;15.50;81.80;;;;;;620305;229;26809;-66
2022/06/23 02:35:14;;;;;;;3.60;2.20;;;15.50;82.20;;;;;;617467;229;26565;-66
2022/06/23 02:37:48;;;;;;;2.28;2.10;;;15.60;82.50;;;;;;622958;229;26560;-66
2022/06/23 02:40:32;;;;;;;2.58;2.03;;;15.50;82.70;;;;;;626371;229;26584;-66
2022/06/23 02:43:02;;;;;;;2.20;2.00;;;15.50;82.60;;;;;;621336;229;26627;-66
2022/06/23 02:45:45;;;;;;;2.45;2.10;;;15.50;83.20;;;;;;625214;229;26827;-66
2022/06/23 02:48:22;;;;;;;3.15;2.10;;;15.50;83.90;;;;;;621768;229;26547;-67
2022/06/23 02:50:58;;;;;;;1.83;1.73;;;15.40;83.80;;;;;;624878;230;26535;-67
2022/06/23 02:53:40;;;;;;;2.00;1.90;;;15.50;83.00;;;;;;619458;229;26758;-66
2022/06/23 02:56:27;;;;;;;2.87;1.83;;;15.50;83.40;;;;;;613225;230;26596;-66
2022/06/23 02:59:14;;;;;;;3.10;1.98;;;15.40;83.10;;;;;;623420;230;26556;-66
2022/06/23 03:01:59;;;;;;;1.95;1.85;;;15.40;83.50;;;;;;617674;230;26832;-67
2022/06/23 03:04:29;;;;;;;2.78;2.25;;;15.40;83.40;;;;;;618108;230;26581;-65
2022/06/23 03:06:57;;;;;;;3.33;2.10;;;15.40;83.30;;;;;;625322;230;26743;-65
2022/06/23 03:09:29;;;;;;;2.55;2.10;;;15.50;83.10;;;;;;623954;230;26564;-65
2022/06/23 03:11:56;;;;;;;3.15;2.10;;;15.50;83.40;;;;;;622296;230;26602;-65
2022/06/23 03:14:43;;;;;;;2.40;2.20;;;15.50;83.00;;;;;;618082;230;26579;-65
2022/06/23 03:17:36;;;;;;;2.17;2.00;;;15.60;83.10;;;;;;614612;230;26627;-65
2022/06/23 03:20:09;;;;;;;2.30;2.20;;;15.60;83.20;;;;;;621157;230;26654;-65
2022/06/23 03:22:38;;;;;;;2.47;1.95;;;15.50;83.10;;;;;;625128;230;26764;-65
2022/06/23 03:25:08;;;;;;;2.17;1.98;;;15.60;83.30;;;;;;622030;228;26642;-65
2022/06/23 03:27:53;;;;;;;3.05;1.90;;;15.50;82.80;;;;;;621480;230;26962;-65
2022/06/23 03:30:21;;;;;;;1.90;1.80;;;15.50;83.20;;;;;;620000;230;26823;-65
2022/06/23 03:32:50;;;;;;;2.28;2.08;;;15.50;83.20;;;;;;626770;228;26824;-65
2022/06/23 03:35:19;;;;;;;2.17;2.08;;;15.50;83.10;;;;;;626889;229;26836;-65
2022/06/23 03:38:06;;;;;;;2.20;2.10;;;15.60;83.30;;;;;;626751;229;27198;-65
2022/06/23 03:43:30;;;;;;;2.47;2.10;;;15.60;82.90;;;;;;625238;229;26567;-65
2022/06/23 03:46:00;;;;;;;2.25;2.15;;;15.60;82.80;;;;;;626090;229;26817;-65
2022/06/23 03:48:29;;;;;;;2.78;2.40;;;15.70;81.70;;;;;;625288;229;26616;-66
2022/06/23 03:51:04;;;;;;;2.17;1.87;;;15.70;81.70;;;;;;626012;229;26540;-66
2022/06/23 03:53:32;;;;;;;1.98;1.87;;;15.70;81.70;;;;;;625899;229;26567;-66
2022/06/23 03:56:00;;;;;;;2.20;2.00;;;15.80;80.80;;;;;;626271;229;26565;-66
2022/06/23 03:58:44;;;;;;;2.25;2.15;;;15.80;80.70;;;;;;625059;227;26599;-65
2022/06/23 04:01:15;;;;;;;2.40;2.20;;;15.80;80.40;;;;;;618693;229;27197;-65
2022/06/23 04:03:43;;;;;;;2.50;2.20;;;15.90;79.70;;;;;;624708;229;26559;-65
2022/06/23 04:06:15;;;;;;;2.83;2.00;;;16.00;79.30;;;;;;621767;229;26601;-65
2022/06/23 04:08:44;;;;;;;2.17;2.05;;;16.00;79.30;;;;;;621170;230;26579;-65
2022/06/23 04:13:44;;;;;;;2.35;2.17;;;16.10;78.70;;;;;;625538;230;26828;-65
2022/06/23 04:16:11;;;;;;;2.10;1.98;;;16.10;78.20;;;;;;620089;228;26606;-65
2022/06/23 04:18:40;;;;;;;2.42;2.15;;;16.20;77.80;;;;;;617785;230;26929;-65
2022/06/23 04:21:08;;;;;;;2.00;1.90;;;16.20;77.20;;;;;;623072;230;26796;-66
2022/06/23 04:23:36;;;;;;;1.90;1.80;;;16.30;76.90;;;;;;624916;230;26564;-66
2022/06/23 04:26:07;;;;;;;2.20;2.00;;;16.30;76.60;;;;;;624996;230;26758;-65
2022/06/23 04:28:36;;;;;;;2.30;1.98;;;16.30;76.00;;;;;;624759;230;26560;-65
2022/06/23 04:31:04;;;;;;;1.90;1.80;;;16.50;75.60;;;;;;623007;230;26583;-65
2022/06/23 04:33:32;;;;;;;2.45;2.25;;;16.60;74.40;;;;;;618435;230;26558;-66
2022/06/23 04:36:00;;;;;;;2.50;2.30;;;16.70;73.50;;;;;;624743;230;26593;-66
2022/06/23 04:38:31;;;;;;;2.17;1.98;;;16.80;73.70;;;;;;617455;230;26597;-66
2022/06/23 04:41:20;;;;;;;2.33;2.00;;;16.70;73.40;;;;;;618285;230;26629;-66
2022/06/23 04:43:59;;;;;;;2.40;2.17;;;16.80;73.00;;;;;;622175;227;26824;-66
2022/06/23 04:46:42;;;;;;;3.03;2.20;;;16.90;73.20;;;;;;624422;229;26845;-66
2022/06/23 04:49:17;;;;;;;3.67;2.03;;;17.10;71.30;;;;;;623937;229;26586;-66
2022/06/23 04:51:55;;;;;;;2.37;2.08;;;17.00;71.20;;;;;;619888;229;26635;-66
2022/06/23 04:54:23;;;;;;;2.72;2.25;;;17.10;70.50;;;;;;617977;229;26613;-66
2022/06/23 04:56:51;;;;;;;2.45;2.25;;;17.20;69.80;;;;;;622767;229;26636;-65
2022/06/23 04:59:23;;;;;;;2.30;2.10;;;17.30;70.20;;;;;;623207;229;26853;-66
2022/06/23 05:01:51;;;;;;;2.33;2.12;;;17.60;69.20;;;;;;620160;229;26579;-65
2022/06/23 05:04:18;;;;;;;1.95;1.85;;;17.50;69.10;;;;;;622525;229;26794;-66
2022/06/23 05:06:45;;;;;;;2.03;1.92;;;17.70;69.80;;;;;;624543;228;26580;-66
2022/06/23 05:09:23;;;;;;;2.58;2.37;;;17.80;69.60;;;;;;623713;227;26891;-66
2022/06/23 05:11:53;;;;;;;1.92;1.83;;;17.90;69.00;;;;;;623898;229;26536;-66
2022/06/23 05:14:21;;;;;;;2.45;2.25;;;18.00;67.80;;;;;;621515;229;26757;-66
2022/06/23 05:16:49;;;;;;;2.22;2.03;;;18.20;66.00;;;;;;625694;228;26602;-66
2022/06/23 05:19:17;;;;;;;2.50;2.20;;;18.20;66.10;;;;;;617422;230;26579;-66
2022/06/23 05:21:45;;;;;;;2.08;1.98;;;18.20;66.10;;;;;;619152;230;27033;-66
2022/06/23 05:24:13;;;;;;;2.15;1.90;;;18.30;64.60;;;;;;625136;230;26789;-66
2022/06/23 05:26:41;;;;;;;2.03;1.92;;;18.40;65.50;;;;;;623467;228;26570;-66
2022/06/23 05:29:23;;;;;;;2.03;1.92;;;18.50;64.50;;;;;;622137;227;26625;-66
2022/06/23 05:31:50;;;;;;;2.00;1.90;;;18.70;64.40;;;;;;619839;230;26572;-66
2022/06/23 05:34:22;;;;;;;2.40;2.20;;;19.00;63.10;;;;;;624423;229;26765;-66
2022/06/23 05:37:04;;;;;;;2.10;2.00;;;18.90;63.00;;;;;;624650;230;26547;-66
2022/06/23 05:39:32;;;;;;;1.95;1.80;;;19.10;62.50;;;;;;624437;227;26590;-66
2022/06/23 05:42:00;;;;;;;2.12;1.90;;;19.30;61.10;;;;;;625244;230;26578;-66
2022/06/23 05:44:28;;;;;;;2.53;2.08;;;19.30;60.10;;;;;;624471;230;26554;-65
2022/06/23 05:46:55;;;;;;;2.17;1.98;;;19.30;59.90;;;;;;625257;230;26542;-65
2022/06/23 05:49:24;;;;;;;1.98;1.87;;;19.40;59.50;;;;;;624962;230;26713;-65
2022/06/23 05:52:12;;;;;;;2.28;2.05;;;19.50;59.50;;;;;;624149;230;26809;-65
2022/06/23 05:54:54;;;;;;;2.08;1.98;;;19.60;59.40;;;;;;617218;230;26811;-65
2022/06/23 05:57:28;;;;;;;2.55;2.12;;;19.80;58.70;;;;;;622916;226;26578;-65
2022/06/23 05:59:55;;;;;;;1.90;1.80;;;19.90;58.70;;;;;;622604;229;26798;-65
2022/06/23 06:02:25;;;;;;;1.85;1.70;;;20.00;58.40;;;;;;620574;228;26578;-65
2022/06/23 06:04:53;;;;;;;2.08;1.98;;;20.10;58.30;;;;;;626243;229;26778;-65
2022/06/23 06:07:21;;;;;;;1.80;1.70;;;20.30;57.30;;;;;;622578;229;26621;-65
2022/06/23 06:09:48;;;;;;;1.90;1.80;;;20.40;57.80;;;;;;617897;233;26590;-66
2022/06/23 06:12:18;;;;;;;2.12;2.03;;;20.50;57.50;;;;;;624342;229;26635;-65
2022/06/23 06:14:49;;;;;;;1.87;1.77;;;20.50;57.50;;;;;;625456;229;26804;-65
2022/06/23 06:17:17;;;;;;;2.50;1.90;;;20.60;57.50;;;;;;620924;229;26561;-64
2022/06/23 06:19:43;;;;;;;1.87;1.77;;;20.70;56.40;;;;;;623881;226;26824;-66
2022/06/23 06:22:16;;;;;;;2.25;2.15;;;20.80;56.20;;;;;;618245;229;26567;-66
2022/06/23 06:24:44;;;;;;;2.10;1.90;;;20.90;56.20;;;;;;622233;229;26546;-66
2022/06/23 06:27:11;;;;;;;2.10;2.00;;;21.00;56.10;;;;;;622907;229;27142;-65
2022/06/23 06:29:39;;;;;;;1.90;1.80;;;21.10;55.40;;;;;;626360;229;26583;-66
2022/06/23 06:32:16;;;;;;;1.60;1.50;;;21.20;55.20;;;;;;621743;229;26794;-64
2022/06/23 06:34:46;;;;;;;2.35;1.87;;;21.30;55.30;;;;;;621586;230;26629;-65
2022/06/23 06:37:14;;;;;;;1.85;1.75;;;21.40;54.90;;;;;;624933;228;26595;-65
2022/06/23 06:39:43;;;;;;;1.90;1.80;;;21.50;54.60;;;;;;625468;230;26570;-65
2022/06/23 06:42:12;;;;;;;2.08;1.95;;;21.50;54.60;;;;;;624740;230;26827;-65
2022/06/23 06:44:42;;;;;;;2.15;1.83;;;21.70;54.30;;;;;;624561;230;26745;-65
2022/06/23 06:47:17;;;;;;;1.95;1.85;;;21.80;53.80;;;;;;619475;230;26587;-65
2022/06/23 06:49:44;;;;;;;2.00;1.90;;;21.80;53.80;;;;;;624758;226;26816;-65
2022/06/23 06:52:11;;;;;;;2.28;1.95;;;21.80;54.20;;;;;;619204;230;26595;-65
2022/06/23 06:54:43;;;;;;;1.95;1.85;;;21.90;54.00;;;;;;623791;230;26825;-66
2022/06/23 06:57:13;;;;;;;2.72;2.08;;;22.10;54.00;;;;;;625796;230;26817;-66
2022/06/23 06:59:47;;;;;;;2.17;1.90;;;22.20;53.70;;;;;;622396;230;26994;-66
2022/06/23 07:02:28;;;;;;;1.73;1.62;;;22.30;53.60;;;;;;621239;230;26580;-66
2022/06/23 07:05:06;;;;;;;2.33;1.85;;;22.40;53.30;;;;;;624797;230;26560;-66
2022/06/23 07:07:34;;;;;;;2.33;1.80;;;22.40;53.30;;;;;;624866;228;26617;-66
2022/06/23 07:10:06;;;;;;;2.35;2.20;;;22.50;52.90;;;;;;621759;229;26827;-66
2022/06/23 07:12:44;;;;;;;1.70;1.60;;;22.60;53.30;;;;;;623034;229;26817;-66
2022/06/23 07:15:12;;;;;;;1.75;1.65;;;22.70;53.10;;;;;;621170;229;26794;-66
2022/06/23 07:17:43;;;;;;;1.50;1.50;;;22.80;53.30;;;;;;624724;229;26593;-66
2022/06/23 07:20:24;;;;;;;1.60;1.60;;;22.80;52.90;;;;;;625101;229;26854;-66
2022/06/23 07:22:54;;;;;;;1.87;1.77;;;23.00;52.70;;;;;;615456;229;27275;-64
2022/06/23 07:25:21;;;;;;;1.87;1.77;;;23.00;52.40;;;;;;621365;229;26566;-64
2022/06/23 07:27:50;;;;;;;2.17;2.05;;;23.00;52.20;;;;;;626322;229;26804;-66
2022/06/23 07:30:19;;;;;;;1.77;1.67;;;23.30;52.00;;;;;;622630;229;26600;-65
2022/06/23 07:32:51;;;;;;;1.55;1.52;;;23.30;51.90;;;;;;623641;229;26535;-65
2022/06/23 07:35:36;;;;;;;2.60;1.80;;;23.30;51.90;;;;;;620835;229;26575;-66
2022/06/23 07:38:06;;;;;;;1.70;1.60;;;23.40;52.00;;;;;;625889;229;26765;-66
2022/06/23 07:40:34;;;;;;;2.25;2.05;;;23.40;51.40;;;;;;624152;229;26563;-65
2022/06/23 07:43:02;;;;;;;1.75;1.65;;;23.50;51.40;;;;;;621781;229;26565;-65
2022/06/23 07:45:33;;;;;;;1.70;1.60;;;23.50;51.40;;;;;;621456;230;26558;-66
2022/06/23 07:48:00;;;;;;;2.08;1.85;;;23.60;50.90;;;;;;617287;233;26623;-66
2022/06/23 07:50:27;;;;;;;1.70;1.60;;;23.60;50.70;;;;;;617367;232;26639;-65
2022/06/23 07:52:54;;;;;;;2.70;1.60;;;23.60;51.10;;;;;;623012;230;26796;-65
2022/06/23 07:55:23;;;;;;;1.70;1.60;;;23.70;50.70;;;;;;624589;230;26593;-65
2022/06/23 07:57:51;;;;;;;2.83;1.80;;;23.90;50.90;;;;;;624296;230;26558;-66
2022/06/23 08:00:18;;;;;;;2.35;1.70;;;23.90;50.60;;;;;;622405;229;26573;-66
2022/06/23 08:02:49;;;;;;;2.35;1.90;;;23.80;50.00;;;;;;624426;230;26552;-65
2022/06/23 08:05:32;;;;;;;2.92;2.00;;;23.70;49.90;;;;;;617045;233;26820;-65
2022/06/23 08:08:00;;;;;;;3.33;1.70;;;24.10;49.60;;;;;;616226;232;26620;-66
2022/06/23 08:10:28;;;;;;;6.37;2.42;;;24.20;49.70;;;;;;620448;227;26856;-65
2022/06/23 08:13:08;;;;;;;2.78;2.22;;;24.10;49.40;;;;;;622818;230;26570;-65
2022/06/23 08:18:12;;;;;;;3.58;1.80;;;24.20;48.10;;;;;;626683;228;26570;-65
2022/06/23 08:20:40;;;;;;;4.47;1.75;;;24.20;47.90;;;;;;624575;228;26557;-65
2022/06/23 08:23:07;;;;;;;1.62;1.52;;;24.30;48.30;;;;;;618917;229;26756;-64
2022/06/23 08:25:34;;;;;;;5.07;1.92;;;24.40;48.80;;;;;;624539;229;26576;-64
2022/06/23 08:28:01;;;;;;;4.55;1.92;;;24.40;48.80;;;;;;625077;229;26554;-65
2022/06/23 08:30:29;;;;;;;2.87;1.92;;;24.50;48.50;;;;;;623486;229;26629;-65
2022/06/23 08:32:57;;;;;;;2.75;1.85;;;24.50;48.90;;;;;;625970;229;26602;-64
2022/06/23 08:35:37;;;;;;;1.87;1.77;;;24.60;49.10;;;;;;620241;228;26606;-65
2022/06/23 08:38:05;;;;;;;3.20;1.80;;;24.60;49.10;;;;;;623365;229;27062;-64
2022/06/23 08:40:40;;;;;;;1.95;1.83;;;24.70;48.80;;;;;;623362;229;26575;-65
2022/06/23 08:43:10;;;;;;;76.10;12.15;;;24.70;48.40;;;;;;623187;229;26566;-64
2022/06/23 08:45:39;;;;;;;42.20;9.68;;;24.70;48.10;;;;;;623912;229;26783;-66
2022/06/23 08:48:29;;;;;;;39.05;9.35;;;24.60;47.90;;;;;;622497;229;26812;-65
2022/06/23 08:50:57;;;;;;;15.95;4.30;;;24.70;48.70;;;;;;618518;229;26604;-66
2022/06/23 08:53:47;;;;;;;17.40;4.50;;;24.70;48.20;;;;;;622397;229;26792;-65
2022/06/23 08:56:17;;;;;;;18.33;4.43;;;24.90;47.70;;;;;;622789;229;26606;-65
2022/06/23 08:58:47;;;;;;;48.30;10.32;;;24.90;47.80;;;;;;622331;227;26855;-65
2022/06/23 09:01:30;;;;;;;26.25;6.95;;;25.00;47.70;;;;;;621623;230;26584;-65
2022/06/23 09:04:17;;;;;;;8.65;3.10;;;24.90;46.50;;;;;;623413;230;26787;-65
2022/06/23 09:06:48;;;;;;;2.15;1.70;;;24.80;46.40;;;;;;620870;230;26629;-67
2022/06/23 09:09:27;;;;;;;3.83;2.35;;;24.80;45.70;;;;;;623190;227;26597;-67
2022/06/23 09:11:56;;;;;;;4.18;1.92;;;24.80;46.50;;;;;;623158;230;26804;-67
2022/06/23 09:14:39;;;;;;;6.62;2.25;;;24.80;45.70;;;;;;622351;230;26551;-67
2022/06/23 09:17:23;;;;;;;7.65;2.40;;;24.80;43.60;;;;;;623771;230;26611;-66
2022/06/23 09:20:14;;;;;;;4.25;2.33;;;24.80;43.70;;;;;;609014;230;26653;-73
2022/06/23 09:23:15;;;;;;;3.20;2.08;;;24.90;43.40;;;;;;617589;228;26655;-66
2022/06/23 09:26:16;;;;;;;2.60;1.75;;;25.00;43.90;;;;;;622194;230;26620;-67
2022/06/23 09:28:45;;;;;;;1.90;1.80;;;25.00;43.90;;;;;;619853;226;26699;-67
2022/06/23 09:31:48;;;;;;;4.05;2.17;;;25.10;44.70;;;;;;622112;229;26566;-69
2022/06/23 09:34:33;;;;;;;1.67;1.50;;;25.30;45.20;;;;;;621623;228;26673;-68
2022/06/23 09:37:31;;;;;;;1.90;1.62;;;25.20;44.70;;;;;;620025;229;26579;-69
2022/06/23 09:40:30;;;;;;;2.00;1.85;;;25.30;44.20;;;;;;623067;229;26943;-66
2022/06/23 09:43:23;;;;;;;1.42;1.33;;;25.40;43.50;;;;;;617004;229;26796;-68
2022/06/23 09:46:01;;;;;;;9.00;3.65;;;25.40;43.20;;;;;;614258;229;26649;-69
2022/06/23 09:48:44;;;;;;;3.80;2.30;;;25.50;43.30;;;;;;623730;229;26936;-69
2022/06/23 09:51:22;;;;;;;6.57;2.70;;;25.50;43.60;;;;;;620998;229;26828;-68
2022/06/23 09:54:16;;;;;;;6.90;2.90;;;25.50;43.60;;;;;;621646;229;26858;-67
2022/06/23 09:56:55;;;;;;;10.77;3.62;;;25.60;44.20;;;;;;622311;229;26539;-68
2022/06/23 09:59:44;;;;;;;6.57;2.83;;;25.60;43.20;;;;;;622746;229;26827;-67
2022/06/23 10:02:16;;;;;;;7.82;3.15;;;25.50;42.50;;;;;;614033;229;26607;-67
2022/06/23 10:04:49;;;;;;;6.40;3.25;;;25.60;42.90;;;;;;621347;228;26886;-69
2022/06/23 10:07:27;;;;;;;8.05;3.60;;;25.60;42.40;;;;;;622481;230;26637;-69
2022/06/23 10:10:24;;;;;;;7.70;2.80;;;25.50;42.30;;;;;;623996;227;26653;-71
2022/06/23 10:12:53;;;;;;;1.80;1.70;;;25.50;43.00;;;;;;621412;229;26605;-64
2022/06/23 10:15:36;;;;;;;2.85;1.73;;;25.60;42.00;;;;;;620046;230;26611;-66
2022/06/23 10:18:14;;;;;;;3.37;1.60;;;25.60;42.00;;;;;;622058;230;26571;-66
2022/06/23 10:20:49;;;;;;;2.05;1.92;;;25.70;42.80;;;;;;622115;229;26623;-66
2022/06/23 10:23:27;;;;;;;6.43;2.60;;;25.80;40.90;;;;;;621165;230;26623;-65
2022/06/23 10:26:05;;;;;;;1.17;1.17;;;25.80;40.90;;;;;;623849;230;26611;-66
2022/06/23 10:28:52;;;;;;;3.37;2.17;;;25.90;42.00;;;;;;623947;230;26722;-70
2022/06/23 10:31:57;;;;;;;1.55;1.35;;;26.00;41.80;;;;;;617852;230;26630;-71
2022/06/23 10:34:31;;;;;;;4.20;2.40;;;26.10;40.90;;;;;;611835;231;26575;-70
2022/06/23 10:37:09;;;;;;;6.78;4.60;;;26.10;41.40;;;;;;620443;230;26580;-70
2022/06/23 10:39:45;;;;;;;3.53;3.17;;;26.10;41.00;;;;;;625156;227;26603;-71
2022/06/23 10:42:20;;;;;;;12.52;9.20;;;26.20;41.50;;;;;;626736;227;26630;-70
2022/06/23 10:45:06;;;;;;;15.20;10.20;;;26.30;40.60;;;;;;627029;229;26595;-69
2022/06/23 10:47:51;;;;;;;11.65;7.22;;;26.30;40.90;;;;;;626046;229;26564;-72
2022/06/23 10:50:32;;;;;;;4.65;3.67;;;26.30;40.90;;;;;;625517;228;26607;-71
2022/06/23 10:53:07;;;;;;;16.02;9.48;;;26.40;40.50;;;;;;623371;229;26628;-69
2022/06/23 10:55:42;;;;;;;14.63;10.40;;;26.50;39.40;;;;;;625840;228;26633;-71
2022/06/23 10:58:43;;;;;;;14.38;8.73;;;26.50;39.40;;;;;;625048;226;26592;-73
2022/06/23 11:01:17;;;;;;;2.28;2.08;;;26.40;39.00;;;;;;614226;230;26829;-72
2022/06/23 11:04:11;;;;;;;2.67;1.80;;;26.60;41.60;;;;;;625944;229;26587;-71
2022/06/23 11:06:49;;;;;;;12.52;7.80;;;26.60;41.10;;;;;;614379;233;26620;-70
2022/06/23 11:09:18;;;;;;;3.97;2.80;;;26.70;39.90;;;;;;617448;231;26614;-70
2022/06/23 11:11:49;;;;;;;2.30;2.10;;;26.70;41.00;;;;;;623063;229;26564;-71
2022/06/23 11:14:30;;;;;;;13.13;7.47;;;26.80;39.70;;;;;;625137;229;26592;-72
2022/06/23 11:17:00;;;;;;;3.65;3.30;;;26.80;38.00;;;;;;626160;228;26570;-72
2022/06/23 11:19:30;;;;;;;3.28;2.00;;;27.00;37.60;;;;;;620318;230;26661;-67
2022/06/23 11:22:03;;;;;;;1.75;1.58;;;27.00;37.60;;;;;;623821;230;26575;-67
2022/06/23 11:24:46;;;;;;;2.80;2.42;;;27.10;38.30;;;;;;624567;230;26834;-69
2022/06/23 11:27:14;;;;;;;2.85;2.55;;;27.20;38.30;;;;;;625907;230;26555;-67
2022/06/23 11:29:47;;;;;;;4.87;3.35;;;27.20;39.20;;;;;;619218;230;26626;-67
2022/06/23 11:32:33;;;;;;;5.15;3.92;;;27.30;38.50;;;;;;624336;230;26625;-66
2022/06/23 11:35:16;;;;;;;1.55;1.45;;;27.30;38.70;;;;;;624572;230;26603;-68
2022/06/23 11:38:07;;;;;;;1.60;1.50;;;27.30;38.50;;;;;;619126;230;26563;-66
2022/06/23 11:40:51;;;;;;;5.35;4.30;;;27.40;38.80;;;;;;614711;231;26611;-66
2022/06/23 11:43:20;;;;;;;10.70;5.90;;;27.40;38.60;;;;;;624837;230;27098;-70
2022/06/23 11:45:50;;;;;;;6.35;3.45;;;27.50;36.90;;;;;;619878;230;26854;-70
2022/06/23 11:48:18;;;;;;;10.88;6.25;;;27.40;36.50;;;;;;618529;230;26555;-68
2022/06/23 11:51:02;;;;;;;13.50;4.28;;;27.40;36.50;;;;;;625264;228;26794;-69
2022/06/23 11:53:52;;;;;;;103.35;25.83;;;27.30;38.00;;;;;;623024;227;26583;-68
2022/06/23 11:56:36;;;;;;;140.70;37.00;;;27.20;37.90;;;;;;619865;229;26606;-67
2022/06/23 11:59:10;;;;;;;150.35;37.13;;;27.40;38.80;;;;;;625412;228;26560;-67
2022/06/23 12:01:37;;;;;;;13.15;5.90;;;27.40;38.10;;;;;;625959;229;26547;-66
2022/06/23 12:04:11;;;;;;;18.23;5.75;;;27.60;39.40;;;;;;624634;229;26573;-69
2022/06/23 12:06:40;;;;;;;18.80;6.35;;;27.50;39.30;;;;;;626624;228;26790;-71
2022/06/23 12:09:29;;;;;;;18.15;7.10;;;27.60;38.20;;;;;;625319;229;26645;-68
2022/06/23 12:11:57;;;;;;;88.00;21.20;;;27.60;38.10;;;;;;614017;234;26608;-67
2022/06/23 12:14:24;;;;;;;98.15;22.92;;;27.80;37.70;;;;;;625233;229;26797;-68
2022/06/23 12:16:55;;;;;;;76.37;21.87;;;27.90;36.80;;;;;;623363;228;26568;-70
2022/06/23 12:19:22;;;;;;;8.25;3.72;;;28.00;37.40;;;;;;621611;230;26592;-69
2022/06/23 12:22:00;;;;;;;55.00;17.00;;;28.30;37.20;;;;;;625800;229;26819;-68
2022/06/23 12:24:35;;;;;;;8.48;4.15;;;28.60;36.40;;;;;;624642;229;26827;-67
2022/06/23 12:27:07;;;;;;;4.95;2.72;;;28.70;36.80;;;;;;622451;229;26566;-66
2022/06/23 12:29:45;;;;;;;31.70;11.65;;;29.40;35.60;;;;;;622334;230;26592;-66
2022/06/23 12:32:28;;;;;;;3.85;2.70;;;29.80;37.40;;;;;;626218;230;26563;-66
2022/06/23 12:35:14;;;;;;;6.43;3.37;;;29.80;37.00;;;;;;618330;230;26618;-66
2022/06/23 12:37:53;;;;;;;13.38;5.43;;;30.30;34.60;;;;;;613465;230;26681;-65
2022/06/23 12:40:28;;;;;;;3.50;2.20;;;30.30;34.60;;;;;;624862;230;26844;-66
2022/06/23 12:42:55;;;;;;;2.60;2.40;;;30.60;36.00;;;;;;620868;230;26585;-66
2022/06/23 12:45:31;;;;;;;2.30;1.85;;;31.10;35.90;;;;;;621360;230;26570;-66
2022/06/23 12:48:09;;;;;;;1.87;1.75;;;31.50;35.50;;;;;;623548;230;26559;-66
2022/06/23 12:50:46;;;;;;;1.80;1.70;;;32.00;35.10;;;;;;621931;230;26915;-66
2022/06/23 12:53:29;;;;;;;1.60;1.50;;;32.40;34.00;;;;;;619737;230;26601;-66
2022/06/23 12:56:06;;;;;;;1.58;1.48;;;32.80;34.60;;;;;;621782;230;26587;-66
2022/06/23 12:58:46;;;;;;;1.70;1.60;;;33.80;32.60;;;;;;624240;230;26643;-66
2022/06/23 13:01:14;;;;;;;4.25;2.75;;;33.80;32.60;;;;;;625431;229;26781;-66
2022/06/23 13:03:50;;;;;;;4.47;3.50;;;34.20;32.10;;;;;;626223;227;26557;-66
2022/06/23 13:06:33;;;;;;;1.52;1.42;;;34.40;32.10;;;;;;626386;229;26546;-66
2022/06/23 13:09:07;;;;;;;1.60;1.50;;;35.30;32.50;;;;;;626803;229;27288;-65
2022/06/23 13:11:55;;;;;;;1.30;1.30;;;36.70;31.80;;;;;;626284;229;26566;-66
2022/06/23 13:14:31;;;;;;;1.27;1.17;;;37.40;31.30;;;;;;611090;229;27361;-66
2022/06/23 13:16:59;;;;;;;1.20;1.10;;;37.90;31.40;;;;;;626024;229;26628;-66
2022/06/23 13:19:42;;;;;;;2.45;1.50;;;38.40;30.30;;;;;;626029;229;26613;-66
2022/06/23 13:22:09;;;;;;;1.40;1.30;;;38.40;30.30;;;;;;621888;229;26618;-66
2022/06/23 13:24:36;;;;;;;1.25;1.15;;;39.30;29.10;;;;;;624207;229;26816;-67
2022/06/23 13:27:11;;;;;;;1.42;1.33;;;40.00;29.10;;;;;;620524;230;26578;-67
2022/06/23 13:29:42;;;;;;;1.12;1.12;;;40.60;27.60;;;;;;626007;226;26590;-67
2022/06/23 13:32:15;;;;;;;1.20;1.20;;;41.60;28.00;;;;;;624382;229;26524;-66